Overview Statistics Trail Chart Weather Telemetry Raw packets
 

This is the latest recevied weather packets stored in our database for station/object EA2RCU-15. If no packets are shown the sender has not sent any weather packets the latest 10 day(s).

<< 92 93 94 95 96 97 98 >>
Time Temp. Humidity Pressure Rain* Wind** Luminosity Snow
1787938504 26.67° C 24% 1003 hPa 0 mm - - -
1787938204 27.22° C 23% 1003 hPa 0 mm - - -
1787937904 26.11° C 23% 1003 hPa 0 mm - - -
1787937604 26.11° C 23% 1003 hPa 0 mm - - -
1787937304 26.67° C 22% 1003 hPa 0 mm - - -
1787937004 27.78° C 21% 1003 hPa 0 mm - - -
1787936704 28.89° C 19% 1003 hPa 0 mm - - -
1787936404 31.11° C 18% 1003 hPa 0 mm - - -
1787936104 33.89° C 14% 1003 hPa 0 mm - - -
1787935804 35.56° C 14% 1003 hPa 0 mm - - -
1787935504 33.33° C 14% 1003 hPa 0 mm - - -
1787935204 36.11° C 13% 1003 hPa 0 mm - - -
1787934904 34.44° C 14% 1003 hPa 0 mm - - -
1787934604 37.22° C 10% 1003 hPa 0 mm - - -
1787934304 40.56° C 9% 1003 hPa 0 mm - - -
1787934004 42.22° C 10% 1003 hPa 0 mm - - -
1787933704 41.67° C 9% 1003 hPa 0 mm - - -
1787933404 41.11° C 9% 1003 hPa 0 mm - - -
1787933104 42.22° C 8% 1003 hPa 0 mm - - -
1787932804 42.22° C 8% 1003 hPa 0 mm - - -
1787932504 42.22° C 11% 1003 hPa 0 mm - - -
1787932204 43.33° C 8% 1003 hPa 0 mm - - -
1787931903 41.11° C 9% 1003 hPa 0 mm - - -
1787931604 39.44° C 10% 1003 hPa 0 mm - - -
1787931304 38.89° C 12% 1003 hPa 0 mm - - -

* Rain latest hour (hover to see other rain measurements)
** Current wind speed in m/s (hover to see current wind gust speed)